createdAt,value
2019-01-21T00:20:57.783Z,49.40
2019-01-21T00:23:26.096Z,52.27
2019-01-21T00:25:54.166Z,53.23
2019-01-21T00:31:16.756Z,57.03
2019-01-21T00:33:44.713Z,54.00
2019-01-21T00:39:07.269Z,55.70
2019-01-21T00:44:42.779Z,51.37
2019-01-21T00:47:10.759Z,53.73
2019-01-21T00:49:57.841Z,46.67
2019-01-21T00:52:25.811Z,56.73
2019-01-21T00:58:01.965Z,50.83
2019-01-21T01:03:13.118Z,52.83
2019-01-21T01:05:41.095Z,54.43
2019-01-21T01:08:09.109Z,51.97
2019-01-21T01:10:37.125Z,48.33
2019-01-21T01:13:05.062Z,48.60
2019-01-21T01:15:33.127Z,55.03
2019-01-21T01:18:01.146Z,51.23
2019-01-21T01:20:29.109Z,50.90
2019-01-21T01:22:57.091Z,52.80
2019-01-21T01:25:25.104Z,53.33
2019-01-21T01:27:53.108Z,49.53
2019-01-21T01:30:21.052Z,51.97
2019-01-21T01:32:49.030Z,50.27
2019-01-21T01:35:17.286Z,48.30
2019-01-21T01:37:45.420Z,47.63
2019-01-21T01:40:14.399Z,50.40
2019-01-21T01:42:42.435Z,55.00
2019-01-21T01:45:11.119Z,50.53
2019-01-21T01:47:44.647Z,50.70
2019-01-21T01:50:08.786Z,51.70
2019-01-21T01:52:36.777Z,50.13
2019-01-21T01:55:05.308Z,48.50
2019-01-21T01:57:33.291Z,51.67
2019-01-21T02:00:01.309Z,49.53
2019-01-21T02:05:22.822Z,52.43
2019-01-21T02:10:58.323Z,47.83
2019-01-21T02:16:14.891Z,44.83
2019-01-21T02:18:42.889Z,47.67
2019-01-21T02:21:10.897Z,50.10
2019-01-21T02:23:38.874Z,43.80
2019-01-21T02:26:25.970Z,43.00
2019-01-21T02:29:13.116Z,47.23
2019-01-21T02:32:00.205Z,44.80
2019-01-21T02:34:47.292Z,43.47
2019-01-21T02:37:34.368Z,44.30
2019-01-21T02:40:05.457Z,44.30
2019-01-21T02:42:52.570Z,50.73
2019-01-21T02:45:39.693Z,44.20
2019-01-21T02:48:26.888Z,44.57
2019-01-21T02:51:14.080Z,46.40
2019-01-21T02:53:54.573Z,44.70
2019-01-21T02:56:41.786Z,51.10
2019-01-21T02:59:18.105Z,48.27
2019-01-21T03:05:48.879Z,53.07
2019-01-21T03:08:37.494Z,49.13
2019-01-21T03:11:24.615Z,52.10
2019-01-21T03:14:13.402Z,50.33
2019-01-21T03:17:00.564Z,53.40
2019-01-21T03:19:47.645Z,50.07
2019-01-21T03:22:34.837Z,53.93
2019-01-21T03:25:21.915Z,43.90
2019-01-21T03:28:09.175Z,46.57
2019-01-21T03:34:02.603Z,46.57
2019-01-21T03:36:49.655Z,44.40
2019-01-21T03:39:36.766Z,43.40
2019-01-21T03:42:23.901Z,41.30
2019-01-21T03:45:11.029Z,45.03
2019-01-21T03:47:58.120Z,48.70
2019-01-21T03:50:45.405Z,49.63
2019-01-21T03:53:32.498Z,48.43
2019-01-21T03:59:29.622Z,45.40
2019-01-21T04:02:16.788Z,47.10
2019-01-21T04:08:04.791Z,52.27
2019-01-21T04:13:54.601Z,48.70
2019-01-21T04:16:41.725Z,55.00
2019-01-21T04:19:28.835Z,51.37
2019-01-21T04:22:05.574Z,52.67
2019-01-21T04:28:05.676Z,48.67
2019-01-21T04:30:52.837Z,48.73
2019-01-21T04:33:39.956Z,49.13
2019-01-21T04:39:15.566Z,52.03
2019-01-21T04:42:06.695Z,47.40
2019-01-21T04:44:54.162Z,50.87
2019-01-21T04:47:36.095Z,51.83
2019-01-21T04:50:23.308Z,58.97
2019-01-21T04:53:10.456Z,54.47
2019-01-21T04:55:57.640Z,58.53
2019-01-21T04:58:44.963Z,51.77
2019-01-21T05:01:32.032Z,56.13
2019-01-21T05:07:03.265Z,54.33
2019-01-21T05:09:50.805Z,51.37
2019-01-21T05:12:32.443Z,51.47
2019-01-21T05:15:08.150Z,50.87
2019-01-21T05:17:55.236Z,55.37
2019-01-21T05:20:42.326Z,47.10
2019-01-21T05:23:31.118Z,50.00
2019-01-21T05:26:21.732Z,48.17
2019-01-21T05:29:10.385Z,53.10
2019-01-21T05:31:57.474Z,52.70
2019-01-21T05:34:33.048Z,54.23
2019-01-21T05:37:04.909Z,50.53
2019-01-21T05:39:37.451Z,50.97
2019-01-21T05:42:24.550Z,51.27
2019-01-21T05:45:11.667Z,53.23
2019-01-21T05:47:58.721Z,55.27
2019-01-21T05:50:50.138Z,48.37
2019-01-21T05:53:38.834Z,53.70
2019-01-21T05:59:25.988Z,47.73
2019-01-21T06:02:13.114Z,47.20
2019-01-21T06:05:00.299Z,51.90
2019-01-21T06:07:36.210Z,48.03
2019-01-21T06:10:23.399Z,49.37
2019-01-21T06:13:10.535Z,47.63
2019-01-21T06:15:57.666Z,48.90
2019-01-21T06:18:32.546Z,55.20
2019-01-21T06:21:19.671Z,50.97
2019-01-21T06:23:54.409Z,54.43
2019-01-21T06:26:41.539Z,54.73
2019-01-21T06:29:28.629Z,53.38
2019-01-21T06:32:15.812Z,52.97
2019-01-21T06:34:48.092Z,45.40
2019-01-21T06:37:19.520Z,47.63
2019-01-21T06:40:06.643Z,47.70
2019-01-21T06:42:53.783Z,47.23
2019-01-21T06:45:30.679Z,47.87
2019-01-21T06:48:17.807Z,50.60
2019-01-21T06:51:05.350Z,53.40
2019-01-21T06:53:52.439Z,51.60
2019-01-21T06:56:39.581Z,54.37
2019-01-21T06:59:26.689Z,52.97
2019-01-21T07:02:13.823Z,50.17
2019-01-21T07:05:01.115Z,56.53
2019-01-21T07:07:48.259Z,55.30
2019-01-21T07:10:35.453Z,54.90
2019-01-21T07:13:22.586Z,59.40
2019-01-21T07:16:09.671Z,55.50
2019-01-21T07:18:46.572Z,52.23
2019-01-21T07:24:40.090Z,57.10
2019-01-21T07:27:27.285Z,54.20
2019-01-21T07:30:14.383Z,53.30
2019-01-21T07:33:01.535Z,60.77
2019-01-21T07:35:35.151Z,56.10
2019-01-21T07:38:22.355Z,58.90
2019-01-21T07:41:09.659Z,63.77
2019-01-21T07:43:56.824Z,62.67
2019-01-21T07:46:29.195Z,62.43
2019-01-21T07:49:17.710Z,56.23
2019-01-21T07:52:05.131Z,64.77
2019-01-21T07:54:52.316Z,58.57
2019-01-21T07:57:29.384Z,63.17
2019-01-21T08:00:01.751Z,62.10
2019-01-21T08:02:48.950Z,68.67
2019-01-21T08:08:07.534Z,60.23
2019-01-21T08:10:54.684Z,66.70
2019-01-21T08:13:41.848Z,62.87
2019-01-21T08:16:29.025Z,63.43
2019-01-21T08:19:01.555Z,66.90
2019-01-21T08:21:48.754Z,63.90
2019-01-21T08:24:35.862Z,64.47
2019-01-21T08:27:22.968Z,64.17
2019-01-21T08:30:11.127Z,58.77
2019-01-21T08:32:58.215Z,70.37
2019-01-21T08:35:45.364Z,61.13
2019-01-21T08:38:32.657Z,54.53
2019-01-21T08:41:19.807Z,60.40
2019-01-21T08:44:06.916Z,59.00
2019-01-21T08:46:54.045Z,58.07
2019-01-21T08:49:35.834Z,62.33
2019-01-21T08:52:22.949Z,62.97
2019-01-21T08:54:57.904Z,58.70
2019-01-21T08:57:45.033Z,56.90
2019-01-21T09:00:32.105Z,65.40
2019-01-21T09:03:19.316Z,69.30
2019-01-21T09:06:06.479Z,62.43
2019-01-21T09:08:53.639Z,63.57
2019-01-21T09:11:40.701Z,61.77
2019-01-21T09:14:27.858Z,62.73
2019-01-21T09:17:15.078Z,67.43
2019-01-21T09:20:02.159Z,61.57
2019-01-21T09:22:49.232Z,58.43
2019-01-21T09:25:36.377Z,60.13
2019-01-21T09:28:23.557Z,59.70
2019-01-21T09:31:10.626Z,56.33
2019-01-21T09:33:57.710Z,59.37
2019-01-21T09:36:44.983Z,58.10
2019-01-21T09:39:32.064Z,63.60
2019-01-21T09:42:19.263Z,55.97
2019-01-21T09:45:06.373Z,54.77
2019-01-21T09:47:33.633Z,51.77
2019-01-21T09:50:01.680Z,55.60
2019-01-21T09:52:29.736Z,49.67
2019-01-21T09:54:57.754Z,60.63
2019-01-21T09:57:26.096Z,51.03
2019-01-21T10:00:13.149Z,51.10
2019-01-21T10:02:42.330Z,55.63
2019-01-21T10:05:29.384Z,51.90
2019-01-21T10:08:16.611Z,58.80
2019-01-21T10:10:49.325Z,50.73
2019-01-21T10:13:36.552Z,48.23
2019-01-21T10:16:23.634Z,50.50
2019-01-21T10:19:10.839Z,57.87
2019-01-21T10:21:57.919Z,50.00
2019-01-21T10:24:33.204Z,51.60
2019-01-21T10:27:15.491Z,51.93
2019-01-21T10:30:02.588Z,58.77
2019-01-21T10:32:49.738Z,50.67
2019-01-21T10:35:36.867Z,54.73
2019-01-21T10:38:24.035Z,58.37
2019-01-21T10:41:11.145Z,53.33
2019-01-21T10:43:58.271Z,56.93
2019-01-21T10:46:45.377Z,61.73
2019-01-21T10:49:32.523Z,56.87
2019-01-21T10:52:19.653Z,56.23
2019-01-21T10:54:51.843Z,57.23
2019-01-21T10:57:38.931Z,59.80
2019-01-21T11:00:26.070Z,53.57
2019-01-21T11:03:13.171Z,57.97
2019-01-21T11:06:00.394Z,62.00
2019-01-21T11:08:47.527Z,57.53
2019-01-21T11:11:34.693Z,65.23
2019-01-21T11:14:21.913Z,64.20
2019-01-21T11:17:09.003Z,62.33
2019-01-21T11:19:56.195Z,60.53
2019-01-21T11:22:43.297Z,68.67
2019-01-21T11:25:30.450Z,57.73
2019-01-21T11:28:03.175Z,58.57
2019-01-21T11:30:50.385Z,57.73
2019-01-21T11:33:37.562Z,59.07
2019-01-21T11:36:24.653Z,58.20
2019-01-21T11:39:11.921Z,58.20
2019-01-21T11:41:59.073Z,64.57
2019-01-21T11:44:46.168Z,55.40
2019-01-21T11:47:33.293Z,55.97
2019-01-21T11:50:20.388Z,57.20
2019-01-21T11:53:07.569Z,54.40
2019-01-21T11:55:54.643Z,58.07
2019-01-21T11:58:41.726Z,60.23
2019-01-21T12:01:13.700Z,55.40
2019-01-21T12:04:00.950Z,55.13
2019-01-21T12:06:33.908Z,62.07
2019-01-21T12:09:07.524Z,59.23
2019-01-21T12:12:02.076Z,62.50
2019-01-21T12:14:49.131Z,65.57
2019-01-21T12:17:36.280Z,63.17
2019-01-21T12:20:23.409Z,58.87
2019-01-21T12:23:10.619Z,61.33
2019-01-21T12:25:57.705Z,71.73
2019-01-21T12:28:44.862Z,57.83
2019-01-21T12:31:31.970Z,63.17
2019-01-21T12:34:19.125Z,59.77
2019-01-21T12:37:06.404Z,66.43
2019-01-21T12:39:55.718Z,64.97
2019-01-21T12:42:42.827Z,61.00
2019-01-21T12:45:30.048Z,65.27
2019-01-21T12:48:17.106Z,65.27
2019-01-21T12:50:51.314Z,58.70
2019-01-21T12:53:39.789Z,59.07
2019-01-21T12:56:27.023Z,63.73
2019-01-21T12:59:16.114Z,68.10
2019-01-21T13:01:49.656Z,60.33
2019-01-21T13:04:24.218Z,60.40
2019-01-21T13:07:11.323Z,62.30
2019-01-21T13:09:58.532Z,66.90
2019-01-21T13:15:34.640Z,64.80
2019-01-21T13:18:10.663Z,63.00
2019-01-21T13:20:57.772Z,54.67
2019-01-21T13:23:31.534Z,59.57
2019-01-21T13:26:18.749Z,66.43
2019-01-21T13:28:49.609Z,60.43
2019-01-21T13:31:36.711Z,67.37
2019-01-21T13:34:23.846Z,70.13
2019-01-21T13:37:06.886Z,58.93
2019-01-21T13:39:54.067Z,57.43
2019-01-21T13:42:41.185Z,57.07
2019-01-21T13:45:28.302Z,60.97
2019-01-21T13:48:15.410Z,60.07
2019-01-21T13:51:02.525Z,63.07
2019-01-21T13:53:49.846Z,62.77
2019-01-21T13:56:36.935Z,63.73
2019-01-21T13:59:25.509Z,57.87
2019-01-21T14:02:12.650Z,59.63
2019-01-21T14:04:59.764Z,56.67
2019-01-21T14:07:46.921Z,58.50
2019-01-21T14:10:34.404Z,54.37
2019-01-21T14:13:26.430Z,56.10
2019-01-21T14:15:57.211Z,60.10
2019-01-21T14:18:44.397Z,55.90
2019-01-21T14:21:18.291Z,57.43
2019-01-21T14:24:05.406Z,58.60
2019-01-21T14:26:52.534Z,58.33
2019-01-21T14:29:39.655Z,60.30
2019-01-21T14:32:26.857Z,62.50
2019-01-21T14:35:13.937Z,59.50
2019-01-21T14:38:01.073Z,59.98
2019-01-21T14:43:59.753Z,57.47
2019-01-21T14:46:46.888Z,58.50
2019-01-21T14:49:34.040Z,60.27
2019-01-21T14:52:21.164Z,66.10
2019-01-21T14:55:02.952Z,60.60
2019-01-21T14:57:50.137Z,67.53
2019-01-21T15:00:37.375Z,62.40
2019-01-21T15:03:24.523Z,67.03
2019-01-21T15:06:06.772Z,68.33
2019-01-21T15:08:53.846Z,67.37
2019-01-21T15:11:41.004Z,66.60
2019-01-21T15:14:28.053Z,68.83
2019-01-21T15:17:15.225Z,74.30
2019-01-21T15:20:02.356Z,73.23
2019-01-21T15:22:49.555Z,76.10
2019-01-21T15:25:36.670Z,80.00
2019-01-21T15:28:24.058Z,83.40
2019-01-21T15:31:11.146Z,81.43
2019-01-21T15:33:58.484Z,76.17
2019-01-21T15:36:47.275Z,81.83
2019-01-21T15:39:34.672Z,85.63
2019-01-21T15:42:22.111Z,83.27
2019-01-21T15:45:09.911Z,79.97
2019-01-21T15:47:57.112Z,98.33
2019-01-21T15:50:32.810Z,79.13
2019-01-21T15:53:06.364Z,81.07
2019-01-21T15:55:38.116Z,78.83
2019-01-21T15:58:25.275Z,80.77
2019-01-21T16:00:57.287Z,78.73
2019-01-21T16:03:33.772Z,77.23
2019-01-21T16:06:20.838Z,84.53
2019-01-21T16:09:08.009Z,84.10
2019-01-21T16:11:55.113Z,82.43
2019-01-21T16:14:35.477Z,82.30
2019-01-21T16:17:22.566Z,92.93
2019-01-21T16:20:09.666Z,82.17
2019-01-21T16:22:56.739Z,81.37
2019-01-21T16:25:43.851Z,80.67
2019-01-21T16:28:17.034Z,80.53
2019-01-21T16:31:04.106Z,85.20
2019-01-21T16:33:51.180Z,82.27
2019-01-21T16:36:38.293Z,80.80
2019-01-21T16:39:09.843Z,84.93
2019-01-21T16:41:56.942Z,86.23
2019-01-21T16:44:25.264Z,88.97
2019-01-21T16:46:53.247Z,80.87
2019-01-21T16:49:21.434Z,87.47
2019-01-21T16:52:08.556Z,80.17
2019-01-21T16:54:36.724Z,85.10
2019-01-21T16:57:04.712Z,81.70
2019-01-21T16:59:32.749Z,87.20
2019-01-21T17:02:00.821Z,79.70
2019-01-21T17:04:28.833Z,82.23
2019-01-21T17:06:57.060Z,85.10
2019-01-21T17:09:25.108Z,84.13
2019-01-21T17:11:53.058Z,82.43
2019-01-21T17:14:21.104Z,78.07
2019-01-21T17:16:49.091Z,81.50
2019-01-21T17:19:17.294Z,91.03
2019-01-21T17:21:45.302Z,83.47
2019-01-21T17:24:13.311Z,84.80
2019-01-21T17:26:41.338Z,88.40
2019-01-21T17:29:09.303Z,92.95
2019-01-21T17:31:37.334Z,85.33
2019-01-21T17:34:05.597Z,94.27
2019-01-21T17:36:33.646Z,95.40
2019-01-21T17:39:01.618Z,93.33
2019-01-21T17:41:29.786Z,95.30
2019-01-21T17:43:57.743Z,99.20
2019-01-21T17:46:26.077Z,102.10
2019-01-21T17:48:54.101Z,99.83
2019-01-21T17:51:22.131Z,99.60
2019-01-21T17:53:51.438Z,105.37
2019-01-21T17:56:19.784Z,105.63
2019-01-21T17:58:47.845Z,107.87
2019-01-21T18:01:18.202Z,107.00
2019-01-21T18:03:46.320Z,110.37
2019-01-21T18:06:14.423Z,119.63
2019-01-21T18:08:42.478Z,113.80
2019-01-21T18:11:10.491Z,109.07
2019-01-21T18:13:38.524Z,115.33
2019-01-21T18:16:06.803Z,113.50
2019-01-21T18:18:34.822Z,116.17
2019-01-21T18:21:02.756Z,115.20
2019-01-21T18:23:30.754Z,110.23
2019-01-21T18:25:58.968Z,125.50
2019-01-21T18:28:27.227Z,114.40
2019-01-21T18:30:55.190Z,117.43
2019-01-21T18:33:23.206Z,114.10
2019-01-21T18:35:51.335Z,126.15
2019-01-21T18:38:19.491Z,117.30
2019-01-21T18:40:47.524Z,111.73
2019-01-21T18:46:10.350Z,116.03
2019-01-21T18:48:38.477Z,111.83
2019-01-21T18:51:06.546Z,107.13
2019-01-21T18:53:34.927Z,105.27
2019-01-21T18:56:03.115Z,108.57
2019-01-21T18:58:31.267Z,115.27
2019-01-21T19:00:59.409Z,103.47
2019-01-21T19:03:27.382Z,105.97
2019-01-21T19:05:55.680Z,107.83
2019-01-21T19:08:23.857Z,112.87
2019-01-21T19:10:52.027Z,113.00
2019-01-21T19:13:20.631Z,106.77
2019-01-21T19:15:50.246Z,108.20
2019-01-21T19:18:19.129Z,96.60
2019-01-21T19:20:47.247Z,100.53
2019-01-21T19:23:15.245Z,95.70
2019-01-21T19:25:43.245Z,110.20
2019-01-21T19:28:11.608Z,110.80
2019-01-21T19:30:39.676Z,109.37
2019-01-21T19:33:07.830Z,117.07
2019-01-21T19:35:36.822Z,107.87
2019-01-21T19:38:04.789Z,106.53
2019-01-21T19:40:32.820Z,111.43
2019-01-21T19:43:00.935Z,121.73
2019-01-21T19:45:28.922Z,111.80
2019-01-21T19:47:56.978Z,117.33
2019-01-21T19:50:24.982Z,114.43
2019-01-21T19:52:52.999Z,106.77
2019-01-21T19:55:22.390Z,115.30
2019-01-21T19:57:50.364Z,114.20
2019-01-21T20:00:18.854Z,95.93
2019-01-21T20:02:46.930Z,98.77
2019-01-21T20:05:14.918Z,99.63
2019-01-21T20:07:42.909Z,96.83
2019-01-21T20:10:12.059Z,93.60
2019-01-21T20:12:40.029Z,96.07
2019-01-21T20:15:08.603Z,93.13
2019-01-21T20:17:36.579Z,91.10
2019-01-21T20:20:05.619Z,95.73
2019-01-21T20:22:33.547Z,95.83
2019-01-21T20:25:01.558Z,106.67
2019-01-21T20:27:29.516Z,99.17
2019-01-21T20:29:57.522Z,95.67
2019-01-21T20:32:26.337Z,99.77
2019-01-21T20:34:54.820Z,96.23
2019-01-21T20:37:22.844Z,102.37
2019-01-21T20:39:51.706Z,98.30
2019-01-21T20:42:21.280Z,96.80
2019-01-21T20:44:49.282Z,88.40
2019-01-21T20:47:17.269Z,95.90
2019-01-21T20:50:04.227Z,91.20
2019-01-21T20:52:32.948Z,90.53
2019-01-21T20:55:02.369Z,91.87
2019-01-21T21:00:12.409Z,94.97
2019-01-21T21:02:40.437Z,90.17
2019-01-21T21:05:08.397Z,99.93
2019-01-21T21:07:37.380Z,93.03
2019-01-21T21:10:09.387Z,88.90
2019-01-21T21:12:38.456Z,88.20
2019-01-21T21:15:07.790Z,92.97
2019-01-21T21:17:36.779Z,91.73
2019-01-21T21:20:06.393Z,94.27
2019-01-21T21:22:34.775Z,87.50
2019-01-21T21:25:06.404Z,85.70
2019-01-21T21:27:53.629Z,87.20
2019-01-21T21:33:17.726Z,86.90
2019-01-21T21:38:55.222Z,145.77
2019-01-21T21:41:10.917Z,87.03
2019-01-21T21:46:48.585Z,95.93
2019-01-21T21:52:27.624Z,94.47
2019-01-21T21:54:41.714Z,87.70
2019-01-21T21:57:09.698Z,85.57
2019-01-21T21:59:56.801Z,87.60
2019-01-21T22:02:24.805Z,176.20
2019-01-21T22:04:54.631Z,113.57
2019-01-21T22:07:23.354Z,107.40
2019-01-21T22:09:51.363Z,91.50
2019-01-21T22:12:19.824Z,110.90
2019-01-21T22:14:48.276Z,95.00
2019-01-21T22:17:16.747Z,90.55
2019-01-21T22:19:44.740Z,85.83
2019-01-21T22:22:12.742Z,97.53
2019-01-21T22:24:40.834Z,99.90
2019-01-21T22:27:08.849Z,92.77
2019-01-21T22:29:36.838Z,91.12
2019-01-21T22:32:06.438Z,86.83
2019-01-21T22:34:34.488Z,89.03
2019-01-21T22:37:02.484Z,100.03
2019-01-21T22:39:30.481Z,93.80
2019-01-21T22:41:58.423Z,93.67
2019-01-21T22:44:26.425Z,97.10
2019-01-21T22:46:54.380Z,90.90
2019-01-21T22:49:22.378Z,93.17
2019-01-21T22:51:50.382Z,104.07
2019-01-21T22:54:18.384Z,93.83
2019-01-21T22:56:46.562Z,93.93
2019-01-21T22:59:14.759Z,96.33
2019-01-21T23:01:42.695Z,91.20
2019-01-21T23:04:10.709Z,96.17
2019-01-21T23:06:38.730Z,94.37
2019-01-21T23:09:08.368Z,98.73
2019-01-21T23:11:36.445Z,103.03
2019-01-21T23:14:04.441Z,98.57
2019-01-21T23:16:32.433Z,102.40
2019-01-21T23:19:00.391Z,96.83
2019-01-21T23:21:28.365Z,97.27
2019-01-21T23:23:56.356Z,91.10
2019-01-21T23:26:24.293Z,96.70
2019-01-21T23:28:52.331Z,102.57
2019-01-21T23:31:20.298Z,101.37
2019-01-21T23:33:48.933Z,91.50
2019-01-21T23:36:17.564Z,93.10
2019-01-21T23:38:45.632Z,101.00
2019-01-21T23:41:13.671Z,95.87
2019-01-21T23:43:41.585Z,93.50
2019-01-21T23:46:09.579Z,97.33
2019-01-21T23:51:45.054Z,97.00
2019-01-21T23:54:13.021Z,96.03
2019-01-21T23:59:35.310Z,98.00
